sensor_id;sensor_type;location;lat;lon;timestamp;P1;durP1;ratioP1;P2;durP2;ratioP2
39190;SDS011;24916;51.676;6.614;2023-04-25T00:01:38;11.85;;;3.83;;
39190;SDS011;24916;51.676;6.614;2023-04-25T00:04:03;14.20;;;4.53;;
39190;SDS011;24916;51.676;6.614;2023-04-25T00:06:31;14.65;;;5.07;;
39190;SDS011;24916;51.676;6.614;2023-04-25T00:08:56;14.60;;;5.68;;
39190;SDS011;24916;51.676;6.614;2023-04-25T00:11:22;8.73;;;4.25;;
39190;SDS011;24916;51.676;6.614;2023-04-25T00:13:47;16.58;;;4.68;;
39190;SDS011;24916;51.676;6.614;2023-04-25T00:16:13;10.93;;;4.28;;
39190;SDS011;24916;51.676;6.614;2023-04-25T00:18:41;8.73;;;4.70;;
39190;SDS011;24916;51.676;6.614;2023-04-25T00:21:06;8.15;;;4.25;;
39190;SDS011;24916;51.676;6.614;2023-04-25T00:23:31;12.25;;;4.35;;
39190;SDS011;24916;51.676;6.614;2023-04-25T00:25:56;17.05;;;5.05;;
39190;SDS011;24916;51.676;6.614;2023-04-25T00:28:22;14.00;;;5.00;;
39190;SDS011;24916;51.676;6.614;2023-04-25T00:30:47;11.43;;;5.13;;
39190;SDS011;24916;51.676;6.614;2023-04-25T00:33:12;9.20;;;4.28;;
39190;SDS011;24916;51.676;6.614;2023-04-25T00:35:37;11.60;;;4.50;;
39190;SDS011;24916;51.676;6.614;2023-04-25T00:38:03;8.40;;;4.25;;
39190;SDS011;24916;51.676;6.614;2023-04-25T00:40:28;12.82;;;5.35;;
39190;SDS011;24916;51.676;6.614;2023-04-25T00:42:53;7.95;;;4.20;;
39190;SDS011;24916;51.676;6.614;2023-04-25T00:45:19;8.55;;;3.88;;
39190;SDS011;24916;51.676;6.614;2023-04-25T00:47:44;6.72;;;4.05;;
39190;SDS011;24916;51.676;6.614;2023-04-25T00:50:10;11.25;;;4.18;;
39190;SDS011;24916;51.676;6.614;2023-04-25T00:52:37;13.80;;;4.85;;
39190;SDS011;24916;51.676;6.614;2023-04-25T00:55:03;11.52;;;4.25;;
39190;SDS011;24916;51.676;6.614;2023-04-25T00:57:29;11.88;;;4.80;;
39190;SDS011;24916;51.676;6.614;2023-04-25T00:59:54;10.35;;;4.05;;
39190;SDS011;24916;51.676;6.614;2023-04-25T01:02:20;9.48;;;4.45;;
39190;SDS011;24916;51.676;6.614;2023-04-25T01:04:45;12.27;;;5.65;;
39190;SDS011;24916;51.676;6.614;2023-04-25T01:07:10;12.38;;;4.43;;
39190;SDS011;24916;51.676;6.614;2023-04-25T01:09:36;11.23;;;4.82;;
39190;SDS011;24916;51.676;6.614;2023-04-25T01:12:01;12.48;;;5.13;;
39190;SDS011;24916;51.676;6.614;2023-04-25T01:14:27;16.17;;;5.20;;
39190;SDS011;24916;51.676;6.614;2023-04-25T01:16:52;15.27;;;4.97;;
39190;SDS011;24916;51.676;6.614;2023-04-25T01:19:18;11.60;;;4.70;;
39190;SDS011;24916;51.676;6.614;2023-04-25T01:21:44;12.82;;;5.13;;
39190;SDS011;24916;51.676;6.614;2023-04-25T01:24:10;12.63;;;4.28;;
39190;SDS011;24916;51.676;6.614;2023-04-25T01:26:35;14.85;;;5.15;;
39190;SDS011;24916;51.676;6.614;2023-04-25T01:29:00;13.98;;;4.60;;
39190;SDS011;24916;51.676;6.614;2023-04-25T01:31:26;12.00;;;4.47;;
39190;SDS011;24916;51.676;6.614;2023-04-25T01:33:52;14.55;;;5.60;;
39190;SDS011;24916;51.676;6.614;2023-04-25T01:36:17;12.48;;;5.05;;
39190;SDS011;24916;51.676;6.614;2023-04-25T01:38:42;12.18;;;4.72;;
39190;SDS011;24916;51.676;6.614;2023-04-25T01:41:08;16.80;;;4.95;;
39190;SDS011;24916;51.676;6.614;2023-04-25T01:43:34;16.35;;;5.15;;
39190;SDS011;24916;51.676;6.614;2023-04-25T01:46:00;17.75;;;4.53;;
39190;SDS011;24916;51.676;6.614;2023-04-25T01:48:25;9.20;;;4.53;;
39190;SDS011;24916;51.676;6.614;2023-04-25T01:50:51;21.50;;;5.45;;
39190;SDS011;24916;51.676;6.614;2023-04-25T01:53:16;11.82;;;4.47;;
39190;SDS011;24916;51.676;6.614;2023-04-25T01:55:41;10.65;;;4.65;;
39190;SDS011;24916;51.676;6.614;2023-04-25T01:58:07;16.00;;;4.68;;
39190;SDS011;24916;51.676;6.614;2023-04-25T02:00:34;14.40;;;5.80;;
39190;SDS011;24916;51.676;6.614;2023-04-25T02:02:59;13.30;;;4.45;;
39190;SDS011;24916;51.676;6.614;2023-04-25T02:05:25;16.63;;;4.93;;
39190;SDS011;24916;51.676;6.614;2023-04-25T02:07:50;13.75;;;4.80;;
39190;SDS011;24916;51.676;6.614;2023-04-25T02:10:15;12.85;;;4.97;;
39190;SDS011;24916;51.676;6.614;2023-04-25T02:12:40;13.85;;;4.85;;
39190;SDS011;24916;51.676;6.614;2023-04-25T02:15:06;8.00;;;4.95;;
39190;SDS011;24916;51.676;6.614;2023-04-25T02:17:31;17.58;;;5.00;;
39190;SDS011;24916;51.676;6.614;2023-04-25T02:19:57;14.38;;;5.40;;
39190;SDS011;24916;51.676;6.614;2023-04-25T02:22:22;15.85;;;5.05;;
39190;SDS011;24916;51.676;6.614;2023-04-25T02:24:48;17.02;;;5.47;;
39190;SDS011;24916;51.676;6.614;2023-04-25T02:27:13;13.52;;;4.65;;
39190;SDS011;24916;51.676;6.614;2023-04-25T02:29:38;10.55;;;4.80;;
39190;SDS011;24916;51.676;6.614;2023-04-25T02:32:03;12.00;;;4.65;;
39190;SDS011;24916;51.676;6.614;2023-04-25T02:34:29;19.63;;;5.32;;
39190;SDS011;24916;51.676;6.614;2023-04-25T02:36:54;19.13;;;5.10;;
39190;SDS011;24916;51.676;6.614;2023-04-25T02:39:20;12.98;;;4.70;;
39190;SDS011;24916;51.676;6.614;2023-04-25T02:41:47;15.93;;;4.43;;
39190;SDS011;24916;51.676;6.614;2023-04-25T02:44:12;11.95;;;4.55;;
39190;SDS011;24916;51.676;6.614;2023-04-25T02:46:37;17.77;;;4.97;;
39190;SDS011;24916;51.676;6.614;2023-04-25T02:49:02;12.75;;;5.22;;
39190;SDS011;24916;51.676;6.614;2023-04-25T02:51:27;14.15;;;4.82;;
39190;SDS011;24916;51.676;6.614;2023-04-25T02:53:53;13.50;;;4.63;;
39190;SDS011;24916;51.676;6.614;2023-04-25T02:56:18;11.35;;;4.72;;
39190;SDS011;24916;51.676;6.614;2023-04-25T02:58:43;12.57;;;4.72;;
39190;SDS011;24916;51.676;6.614;2023-04-25T03:01:09;17.02;;;4.57;;
39190;SDS011;24916;51.676;6.614;2023-04-25T03:03:34;13.50;;;4.97;;
39190;SDS011;24916;51.676;6.614;2023-04-25T03:05:59;18.02;;;5.10;;
39190;SDS011;24916;51.676;6.614;2023-04-25T03:08:25;18.60;;;5.13;;
39190;SDS011;24916;51.676;6.614;2023-04-25T03:10:51;13.35;;;5.65;;
39190;SDS011;24916;51.676;6.614;2023-04-25T03:13:20;22.65;;;5.57;;
39190;SDS011;24916;51.676;6.614;2023-04-25T03:15:45;14.52;;;5.22;;
39190;SDS011;24916;51.676;6.614;2023-04-25T03:18:10;17.58;;;5.15;;
39190;SDS011;24916;51.676;6.614;2023-04-25T03:20:36;13.52;;;5.03;;
39190;SDS011;24916;51.676;6.614;2023-04-25T03:23:01;13.77;;;4.60;;
39190;SDS011;24916;51.676;6.614;2023-04-25T03:25:26;17.92;;;4.70;;
39190;SDS011;24916;51.676;6.614;2023-04-25T03:27:51;11.00;;;4.32;;
39190;SDS011;24916;51.676;6.614;2023-04-25T03:30:17;18.95;;;5.82;;
39190;SDS011;24916;51.676;6.614;2023-04-25T03:32:42;13.48;;;5.28;;
39190;SDS011;24916;51.676;6.614;2023-04-25T03:35:07;21.55;;;5.60;;
39190;SDS011;24916;51.676;6.614;2023-04-25T03:37:32;17.63;;;5.22;;
39190;SDS011;24916;51.676;6.614;2023-04-25T03:39:58;14.63;;;5.72;;
39190;SDS011;24916;51.676;6.614;2023-04-25T03:42:23;25.10;;;5.40;;
39190;SDS011;24916;51.676;6.614;2023-04-25T03:44:49;14.90;;;5.20;;
39190;SDS011;24916;51.676;6.614;2023-04-25T03:47:14;23.95;;;6.03;;
39190;SDS011;24916;51.676;6.614;2023-04-25T03:49:39;17.23;;;5.82;;
39190;SDS011;24916;51.676;6.614;2023-04-25T03:52:05;17.60;;;5.68;;
39190;SDS011;24916;51.676;6.614;2023-04-25T03:54:30;19.35;;;6.00;;
39190;SDS011;24916;51.676;6.614;2023-04-25T03:56:55;14.45;;;4.93;;
39190;SDS011;24916;51.676;6.614;2023-04-25T03:59:20;11.70;;;4.43;;
39190;SDS011;24916;51.676;6.614;2023-04-25T04:01:45;18.10;;;5.65;;
39190;SDS011;24916;51.676;6.614;2023-04-25T04:04:11;18.20;;;5.35;;
39190;SDS011;24916;51.676;6.614;2023-04-25T04:06:36;18.50;;;5.68;;
39190;SDS011;24916;51.676;6.614;2023-04-25T04:09:02;16.30;;;5.38;;
39190;SDS011;24916;51.676;6.614;2023-04-25T04:11:27;25.15;;;5.60;;
39190;SDS011;24916;51.676;6.614;2023-04-25T04:13:52;22.30;;;5.70;;
39190;SDS011;24916;51.676;6.614;2023-04-25T04:16:17;17.08;;;5.07;;
39190;SDS011;24916;51.676;6.614;2023-04-25T04:18:44;15.63;;;5.20;;
39190;SDS011;24916;51.676;6.614;2023-04-25T04:21:09;21.25;;;5.57;;
39190;SDS011;24916;51.676;6.614;2023-04-25T04:23:35;20.08;;;5.90;;
39190;SDS011;24916;51.676;6.614;2023-04-25T04:26:00;23.08;;;6.80;;
39190;SDS011;24916;51.676;6.614;2023-04-25T04:28:26;19.30;;;5.20;;
39190;SDS011;24916;51.676;6.614;2023-04-25T04:30:51;17.30;;;6.78;;
39190;SDS011;24916;51.676;6.614;2023-04-25T04:33:17;18.00;;;5.78;;
39190;SDS011;24916;51.676;6.614;2023-04-25T04:35:45;15.52;;;5.13;;
39190;SDS011;24916;51.676;6.614;2023-04-25T04:38:11;24.65;;;5.53;;
39190;SDS011;24916;51.676;6.614;2023-04-25T04:40:37;19.48;;;5.70;;
39190;SDS011;24916;51.676;6.614;2023-04-25T04:43:02;19.38;;;5.90;;
39190;SDS011;24916;51.676;6.614;2023-04-25T04:45:27;15.93;;;5.65;;
39190;SDS011;24916;51.676;6.614;2023-04-25T04:47:53;18.33;;;5.80;;
39190;SDS011;24916;51.676;6.614;2023-04-25T04:50:20;13.98;;;5.93;;
39190;SDS011;24916;51.676;6.614;2023-04-25T04:52:45;16.90;;;5.75;;
39190;SDS011;24916;51.676;6.614;2023-04-25T04:55:10;12.25;;;4.95;;
39190;SDS011;24916;51.676;6.614;2023-04-25T04:57:35;22.77;;;5.55;;
39190;SDS011;24916;51.676;6.614;2023-04-25T05:00:01;21.30;;;5.53;;
39190;SDS011;24916;51.676;6.614;2023-04-25T05:02:29;13.20;;;5.13;;
39190;SDS011;24916;51.676;6.614;2023-04-25T05:04:55;17.35;;;5.72;;
39190;SDS011;24916;51.676;6.614;2023-04-25T05:07:20;17.17;;;5.80;;
39190;SDS011;24916;51.676;6.614;2023-04-25T05:09:46;16.95;;;5.40;;
39190;SDS011;24916;51.676;6.614;2023-04-25T05:12:11;18.58;;;5.35;;
39190;SDS011;24916;51.676;6.614;2023-04-25T05:14:36;17.90;;;5.70;;
39190;SDS011;24916;51.676;6.614;2023-04-25T05:17:01;19.35;;;5.60;;
39190;SDS011;24916;51.676;6.614;2023-04-25T05:19:29;15.93;;;4.70;;
39190;SDS011;24916;51.676;6.614;2023-04-25T05:21:55;16.42;;;5.20;;
39190;SDS011;24916;51.676;6.614;2023-04-25T05:24:20;20.10;;;5.28;;
39190;SDS011;24916;51.676;6.614;2023-04-25T05:26:45;19.60;;;5.20;;
39190;SDS011;24916;51.676;6.614;2023-04-25T05:29:10;16.63;;;5.55;;
39190;SDS011;24916;51.676;6.614;2023-04-25T05:31:36;14.95;;;4.90;;
39190;SDS011;24916;51.676;6.614;2023-04-25T05:34:01;20.02;;;4.68;;
39190;SDS011;24916;51.676;6.614;2023-04-25T05:36:26;13.05;;;4.70;;
39190;SDS011;24916;51.676;6.614;2023-04-25T05:38:52;19.33;;;4.57;;
39190;SDS011;24916;51.676;6.614;2023-04-25T05:41:17;18.33;;;3.65;;
39190;SDS011;24916;51.676;6.614;2023-04-25T05:43:42;13.32;;;3.47;;
39190;SDS011;24916;51.676;6.614;2023-04-25T05:46:11;15.32;;;4.72;;
39190;SDS011;24916;51.676;6.614;2023-04-25T05:48:37;16.13;;;4.55;;
39190;SDS011;24916;51.676;6.614;2023-04-25T05:51:02;11.95;;;4.70;;
39190;SDS011;24916;51.676;6.614;2023-04-25T05:53:28;13.48;;;4.40;;
39190;SDS011;24916;51.676;6.614;2023-04-25T05:55:53;13.93;;;4.15;;
39190;SDS011;24916;51.676;6.614;2023-04-25T05:58:18;18.83;;;4.00;;
39190;SDS011;24916;51.676;6.614;2023-04-25T06:00:43;16.15;;;4.72;;
39190;SDS011;24916;51.676;6.614;2023-04-25T06:03:09;14.55;;;3.72;;
39190;SDS011;24916;51.676;6.614;2023-04-25T06:05:34;15.63;;;4.07;;
39190;SDS011;24916;51.676;6.614;2023-04-25T06:08:00;10.00;;;3.63;;
39190;SDS011;24916;51.676;6.614;2023-04-25T06:10:25;12.82;;;3.85;;
39190;SDS011;24916;51.676;6.614;2023-04-25T06:12:50;17.77;;;4.28;;
39190;SDS011;24916;51.676;6.614;2023-04-25T06:15:16;13.27;;;4.63;;
39190;SDS011;24916;51.676;6.614;2023-04-25T06:17:41;13.25;;;4.15;;
39190;SDS011;24916;51.676;6.614;2023-04-25T06:20:06;15.13;;;3.83;;
39190;SDS011;24916;51.676;6.614;2023-04-25T06:22:32;17.05;;;4.00;;
39190;SDS011;24916;51.676;6.614;2023-04-25T06:24:57;14.48;;;3.75;;
39190;SDS011;24916;51.676;6.614;2023-04-25T06:27:24;17.90;;;3.70;;
39190;SDS011;24916;51.676;6.614;2023-04-25T06:29:49;27.15;;;5.00;;
39190;SDS011;24916;51.676;6.614;2023-04-25T06:32:14;14.43;;;3.88;;
39190;SDS011;24916;51.676;6.614;2023-04-25T06:34:39;23.42;;;5.05;;
39190;SDS011;24916;51.676;6.614;2023-04-25T06:37:05;14.45;;;3.67;;
39190;SDS011;24916;51.676;6.614;2023-04-25T06:39:30;15.68;;;3.53;;
39190;SDS011;24916;51.676;6.614;2023-04-25T06:41:55;10.75;;;3.38;;
39190;SDS011;24916;51.676;6.614;2023-04-25T06:44:20;12.30;;;4.00;;
39190;SDS011;24916;51.676;6.614;2023-04-25T06:46:48;17.10;;;4.13;;
39190;SDS011;24916;51.676;6.614;2023-04-25T06:49:13;16.48;;;3.78;;
39190;SDS011;24916;51.676;6.614;2023-04-25T06:51:38;14.10;;;4.15;;
39190;SDS011;24916;51.676;6.614;2023-04-25T06:54:03;15.25;;;3.80;;
39190;SDS011;24916;51.676;6.614;2023-04-25T06:56:30;15.57;;;3.35;;
39190;SDS011;24916;51.676;6.614;2023-04-25T06:58:55;10.32;;;2.90;;
39190;SDS011;24916;51.676;6.614;2023-04-25T07:01:21;13.77;;;3.50;;
39190;SDS011;24916;51.676;6.614;2023-04-25T07:03:46;12.23;;;3.50;;
39190;SDS011;24916;51.676;6.614;2023-04-25T07:06:11;11.15;;;2.65;;
39190;SDS011;24916;51.676;6.614;2023-04-25T07:08:36;12.60;;;2.75;;
39190;SDS011;24916;51.676;6.614;2023-04-25T07:11:02;13.65;;;2.63;;
39190;SDS011;24916;51.676;6.614;2023-04-25T07:13:27;11.27;;;2.78;;
39190;SDS011;24916;51.676;6.614;2023-04-25T07:15:52;9.15;;;2.20;;
39190;SDS011;24916;51.676;6.614;2023-04-25T07:18:17;10.00;;;2.38;;
39190;SDS011;24916;51.676;6.614;2023-04-25T07:20:43;8.80;;;2.40;;
39190;SDS011;24916;51.676;6.614;2023-04-25T07:23:08;8.05;;;2.08;;
39190;SDS011;24916;51.676;6.614;2023-04-25T07:25:33;10.57;;;2.55;;
39190;SDS011;24916;51.676;6.614;2023-04-25T07:28:00;15.65;;;2.63;;
39190;SDS011;24916;51.676;6.614;2023-04-25T07:30:25;8.15;;;2.22;;
39190;SDS011;24916;51.676;6.614;2023-04-25T07:32:50;6.57;;;2.35;;
39190;SDS011;24916;51.676;6.614;2023-04-25T07:35:16;11.00;;;2.33;;
39190;SDS011;24916;51.676;6.614;2023-04-25T07:37:41;14.48;;;2.90;;
39190;SDS011;24916;51.676;6.614;2023-04-25T07:40:07;19.40;;;2.65;;
39190;SDS011;24916;51.676;6.614;2023-04-25T07:42:34;9.68;;;2.22;;
39190;SDS011;24916;51.676;6.614;2023-04-25T07:44:59;23.55;;;2.17;;
39190;SDS011;24916;51.676;6.614;2023-04-25T07:47:25;15.75;;;2.38;;
39190;SDS011;24916;51.676;6.614;2023-04-25T07:49:50;15.38;;;2.30;;
39190;SDS011;24916;51.676;6.614;2023-04-25T07:52:16;7.07;;;2.05;;
39190;SDS011;24916;51.676;6.614;2023-04-25T07:54:41;5.18;;;1.70;;
39190;SDS011;24916;51.676;6.614;2023-04-25T07:57:06;7.00;;;1.85;;
39190;SDS011;24916;51.676;6.614;2023-04-25T07:59:32;7.10;;;2.15;;
39190;SDS011;24916;51.676;6.614;2023-04-25T08:01:57;16.05;;;2.30;;
39190;SDS011;24916;51.676;6.614;2023-04-25T08:04:22;11.68;;;3.47;;
39190;SDS011;24916;51.676;6.614;2023-04-25T08:06:48;15.43;;;3.70;;
39190;SDS011;24916;51.676;6.614;2023-04-25T08:09:13;12.00;;;2.22;;
39190;SDS011;24916;51.676;6.614;2023-04-25T08:11:38;10.00;;;2.03;;
39190;SDS011;24916;51.676;6.614;2023-04-25T08:14:03;11.15;;;1.90;;
39190;SDS011;24916;51.676;6.614;2023-04-25T08:16:29;8.43;;;1.73;;
39190;SDS011;24916;51.676;6.614;2023-04-25T08:18:54;12.18;;;1.85;;
39190;SDS011;24916;51.676;6.614;2023-04-25T08:21:19;10.13;;;1.83;;
39190;SDS011;24916;51.676;6.614;2023-04-25T08:23:45;8.00;;;2.03;;
39190;SDS011;24916;51.676;6.614;2023-04-25T08:26:10;11.50;;;1.85;;
39190;SDS011;24916;51.676;6.614;2023-04-25T08:28:35;9.65;;;1.27;;
39190;SDS011;24916;51.676;6.614;2023-04-25T08:31:01;8.63;;;2.17;;
39190;SDS011;24916;51.676;6.614;2023-04-25T08:33:26;9.23;;;1.55;;
39190;SDS011;24916;51.676;6.614;2023-04-25T08:35:51;10.00;;;2.00;;
39190;SDS011;24916;51.676;6.614;2023-04-25T08:38:17;11.05;;;1.52;;
39190;SDS011;24916;51.676;6.614;2023-04-25T08:40:42;9.05;;;1.30;;
39190;SDS011;24916;51.676;6.614;2023-04-25T08:43:08;9.85;;;1.40;;
39190;SDS011;24916;51.676;6.614;2023-04-25T08:45:38;7.45;;;1.50;;
39190;SDS011;24916;51.676;6.614;2023-04-25T08:48:04;9.50;;;2.25;;
39190;SDS011;24916;51.676;6.614;2023-04-25T08:50:30;11.82;;;1.65;;
39190;SDS011;24916;51.676;6.614;2023-04-25T08:52:55;5.28;;;1.20;;
39190;SDS011;24916;51.676;6.614;2023-04-25T08:55:24;5.82;;;1.95;;
39190;SDS011;24916;51.676;6.614;2023-04-25T08:57:49;5.97;;;1.65;;
39190;SDS011;24916;51.676;6.614;2023-04-25T09:00:15;9.32;;;1.42;;
39190;SDS011;24916;51.676;6.614;2023-04-25T09:02:40;10.25;;;1.85;;
39190;SDS011;24916;51.676;6.614;2023-04-25T09:05:07;10.23;;;1.63;;
39190;SDS011;24916;51.676;6.614;2023-04-25T09:07:34;9.10;;;1.70;;
39190;SDS011;24916;51.676;6.614;2023-04-25T09:09:59;10.30;;;1.13;;
39190;SDS011;24916;51.676;6.614;2023-04-25T09:12:27;8.30;;;1.63;;
39190;SDS011;24916;51.676;6.614;2023-04-25T09:15:12;6.15;;;1.20;;
39190;SDS011;24916;51.676;6.614;2023-04-25T09:17:38;6.68;;;1.35;;
39190;SDS011;24916;51.676;6.614;2023-04-25T09:20:12;6.50;;;1.30;;
39190;SDS011;24916;51.676;6.614;2023-04-25T09:22:38;7.35;;;1.50;;
39190;SDS011;24916;51.676;6.614;2023-04-25T09:25:07;4.78;;;1.40;;
39190;SDS011;24916;51.676;6.614;2023-04-25T09:27:33;6.43;;;1.40;;
39190;SDS011;24916;51.676;6.614;2023-04-25T09:29:58;10.07;;;1.77;;
39190;SDS011;24916;51.676;6.614;2023-04-25T09:32:27;3.70;;;1.05;;
39190;SDS011;24916;51.676;6.614;2023-04-25T09:34:53;9.73;;;1.88;;
39190;SDS011;24916;51.676;6.614;2023-04-25T09:39:45;5.47;;;1.42;;
39190;SDS011;24916;51.676;6.614;2023-04-25T09:42:12;6.57;;;1.50;;
39190;SDS011;24916;51.676;6.614;2023-04-25T09:44:41;6.38;;;1.40;;
39190;SDS011;24916;51.676;6.614;2023-04-25T09:47:09;3.55;;;1.00;;
39190;SDS011;24916;51.676;6.614;2023-04-25T09:49:34;5.88;;;1.13;;
39190;SDS011;24916;51.676;6.614;2023-04-25T09:52:03;9.13;;;1.48;;
39190;SDS011;24916;51.676;6.614;2023-04-25T09:54:28;5.15;;;1.20;;
39190;SDS011;24916;51.676;6.614;2023-04-25T09:56:54;3.08;;;0.80;;
39190;SDS011;24916;51.676;6.614;2023-04-25T09:59:22;6.47;;;1.25;;
39190;SDS011;24916;51.676;6.614;2023-04-25T10:01:50;5.60;;;1.13;;
39190;SDS011;24916;51.676;6.614;2023-04-25T10:04:20;3.15;;;0.90;;
39190;SDS011;24916;51.676;6.614;2023-04-25T10:06:48;4.68;;;1.08;;
39190;SDS011;24916;51.676;6.614;2023-04-25T10:09:14;3.38;;;1.10;;
39190;SDS011;24916;51.676;6.614;2023-04-25T10:11:39;4.05;;;0.93;;
39190;SDS011;24916;51.676;6.614;2023-04-25T10:14:05;2.45;;;0.90;;
39190;SDS011;24916;51.676;6.614;2023-04-25T10:16:31;3.42;;;1.27;;
39190;SDS011;24916;51.676;6.614;2023-04-25T10:18:56;8.98;;;1.73;;
39190;SDS011;24916;51.676;6.614;2023-04-25T10:21:22;4.25;;;1.42;;
39190;SDS011;24916;51.676;6.614;2023-04-25T10:23:48;5.15;;;1.30;;
39190;SDS011;24916;51.676;6.614;2023-04-25T10:26:13;5.28;;;1.30;;
39190;SDS011;24916;51.676;6.614;2023-04-25T10:29:01;5.53;;;1.30;;
39190;SDS011;24916;51.676;6.614;2023-04-25T10:31:25;8.18;;;1.08;;
39190;SDS011;24916;51.676;6.614;2023-04-25T10:33:51;5.70;;;1.13;;
39190;SDS011;24916;51.676;6.614;2023-04-25T10:36:22;5.78;;;1.00;;
39190;SDS011;24916;51.676;6.614;2023-04-25T10:38:48;4.00;;;0.93;;
39190;SDS011;24916;51.676;6.614;2023-04-25T10:41:17;6.03;;;1.30;;
39190;SDS011;24916;51.676;6.614;2023-04-25T10:43:43;4.55;;;0.98;;
39190;SDS011;24916;51.676;6.614;2023-04-25T10:46:22;3.88;;;1.30;;
39190;SDS011;24916;51.676;6.614;2023-04-25T10:51:19;6.35;;;1.08;;
39190;SDS011;24916;51.676;6.614;2023-04-25T10:53:58;2.80;;;0.93;;
39190;SDS011;24916;51.676;6.614;2023-04-25T10:59:02;5.47;;;1.45;;
39190;SDS011;24916;51.676;6.614;2023-04-25T11:01:28;5.15;;;0.93;;
39190;SDS011;24916;51.676;6.614;2023-04-25T11:04:00;6.15;;;1.38;;
39190;SDS011;24916;51.676;6.614;2023-04-25T11:06:43;5.15;;;1.25;;
39190;SDS011;24916;51.676;6.614;2023-04-25T11:09:11;9.93;;;3.35;;
39190;SDS011;24916;51.676;6.614;2023-04-25T11:11:40;5.18;;;1.88;;
39190;SDS011;24916;51.676;6.614;2023-04-25T11:14:05;8.80;;;1.45;;
39190;SDS011;24916;51.676;6.614;2023-04-25T11:16:31;7.30;;;1.30;;
39190;SDS011;24916;51.676;6.614;2023-04-25T11:18:57;2.70;;;1.05;;
39190;SDS011;24916;51.676;6.614;2023-04-25T11:21:22;8.40;;;2.13;;
39190;SDS011;24916;51.676;6.614;2023-04-25T11:23:48;7.97;;;1.70;;
39190;SDS011;24916;51.676;6.614;2023-04-25T11:26:13;6.10;;;1.45;;
39190;SDS011;24916;51.676;6.614;2023-04-25T11:28:39;8.20;;;1.20;;
39190;SDS011;24916;51.676;6.614;2023-04-25T11:31:05;6.55;;;2.25;;
39190;SDS011;24916;51.676;6.614;2023-04-25T11:33:30;5.22;;;2.30;;
39190;SDS011;24916;51.676;6.614;2023-04-25T11:35:56;5.65;;;1.40;;
39190;SDS011;24916;51.676;6.614;2023-04-25T11:38:22;4.47;;;1.40;;
39190;SDS011;24916;51.676;6.614;2023-04-25T11:40:53;5.22;;;2.60;;
39190;SDS011;24916;51.676;6.614;2023-04-25T11:43:22;9.40;;;1.40;;
39190;SDS011;24916;51.676;6.614;2023-04-25T11:45:50;4.88;;;1.23;;
39190;SDS011;24916;51.676;6.614;2023-04-25T11:48:16;5.85;;;1.80;;
39190;SDS011;24916;51.676;6.614;2023-04-25T11:50:42;6.63;;;1.20;;
39190;SDS011;24916;51.676;6.614;2023-04-25T11:53:07;7.35;;;1.20;;
39190;SDS011;24916;51.676;6.614;2023-04-25T11:55:33;9.20;;;1.88;;
39190;SDS011;24916;51.676;6.614;2023-04-25T11:57:59;6.93;;;1.13;;
39190;SDS011;24916;51.676;6.614;2023-04-25T12:00:25;6.40;;;0.95;;
39190;SDS011;24916;51.676;6.614;2023-04-25T12:02:51;6.05;;;1.67;;
39190;SDS011;24916;51.676;6.614;2023-04-25T12:05:17;4.13;;;1.20;;
39190;SDS011;24916;51.676;6.614;2023-04-25T12:07:42;5.93;;;1.38;;
39190;SDS011;24916;51.676;6.614;2023-04-25T12:10:08;5.45;;;1.25;;
39190;SDS011;24916;51.676;6.614;2023-04-25T12:12:34;7.03;;;1.55;;
39190;SDS011;24916;51.676;6.614;2023-04-25T12:17:54;6.57;;;1.75;;
39190;SDS011;24916;51.676;6.614;2023-04-25T12:20:24;4.50;;;1.33;;
39190;SDS011;24916;51.676;6.614;2023-04-25T12:22:50;5.63;;;1.10;;
39190;SDS011;24916;51.676;6.614;2023-04-25T12:33:23;5.95;;;1.25;;
39190;SDS011;24916;51.676;6.614;2023-04-25T12:35:48;8.25;;;1.80;;
39190;SDS011;24916;51.676;6.614;2023-04-25T12:38:23;10.38;;;1.50;;
39190;SDS011;24916;51.676;6.614;2023-04-25T12:43:14;5.32;;;1.15;;
39190;SDS011;24916;51.676;6.614;2023-04-25T12:45:39;6.15;;;1.35;;
39190;SDS011;24916;51.676;6.614;2023-04-25T12:48:04;7.50;;;1.08;;
39190;SDS011;24916;51.676;6.614;2023-04-25T12:50:30;4.35;;;0.75;;
39190;SDS011;24916;51.676;6.614;2023-04-25T12:52:56;5.75;;;0.82;;
39190;SDS011;24916;51.676;6.614;2023-04-25T12:55:21;1.95;;;0.65;;
39190;SDS011;24916;51.676;6.614;2023-04-25T12:57:46;5.70;;;0.90;;
39190;SDS011;24916;51.676;6.614;2023-04-25T13:00:12;2.40;;;0.63;;
39190;SDS011;24916;51.676;6.614;2023-04-25T13:02:39;3.85;;;0.65;;
39190;SDS011;24916;51.676;6.614;2023-04-25T13:05:05;3.45;;;0.60;;
39190;SDS011;24916;51.676;6.614;2023-04-25T13:07:30;5.38;;;1.65;;
39190;SDS011;24916;51.676;6.614;2023-04-25T13:09:55;3.55;;;1.10;;
39190;SDS011;24916;51.676;6.614;2023-04-25T13:12:21;3.23;;;1.07;;
39190;SDS011;24916;51.676;6.614;2023-04-25T13:14:46;2.35;;;0.77;;
39190;SDS011;24916;51.676;6.614;2023-04-25T13:17:11;3.53;;;0.95;;
39190;SDS011;24916;51.676;6.614;2023-04-25T13:19:36;3.85;;;0.90;;
39190;SDS011;24916;51.676;6.614;2023-04-25T13:22:03;1.13;;;0.55;;
39190;SDS011;24916;51.676;6.614;2023-04-25T13:24:29;3.83;;;1.02;;
39190;SDS011;24916;51.676;6.614;2023-04-25T13:26:54;2.10;;;0.57;;
39190;SDS011;24916;51.676;6.614;2023-04-25T13:29:20;3.75;;;0.73;;
39190;SDS011;24916;51.676;6.614;2023-04-25T13:31:45;3.10;;;0.60;;
39190;SDS011;24916;51.676;6.614;2023-04-25T13:34:10;4.25;;;0.73;;
39190;SDS011;24916;51.676;6.614;2023-04-25T13:36:37;1.83;;;0.60;;
39190;SDS011;24916;51.676;6.614;2023-04-25T13:39:02;3.22;;;1.05;;
39190;SDS011;24916;51.676;6.614;2023-04-25T13:41:29;2.53;;;0.90;;
39190;SDS011;24916;51.676;6.614;2023-04-25T13:43:54;3.90;;;1.30;;
39190;SDS011;24916;51.676;6.614;2023-04-25T13:46:20;5.85;;;0.90;;
39190;SDS011;24916;51.676;6.614;2023-04-25T13:48:45;6.25;;;1.30;;
39190;SDS011;24916;51.676;6.614;2023-04-25T13:51:13;3.42;;;0.93;;
39190;SDS011;24916;51.676;6.614;2023-04-25T13:53:39;4.35;;;1.05;;
39190;SDS011;24916;51.676;6.614;2023-04-25T13:56:04;4.32;;;1.00;;
39190;SDS011;24916;51.676;6.614;2023-04-25T13:58:30;6.32;;;1.17;;
39190;SDS011;24916;51.676;6.614;2023-04-25T14:00:55;5.55;;;1.38;;
39190;SDS011;24916;51.676;6.614;2023-04-25T14:03:21;9.88;;;1.50;;
39190;SDS011;24916;51.676;6.614;2023-04-25T14:05:46;5.80;;;1.20;;
39190;SDS011;24916;51.676;6.614;2023-04-25T14:08:11;6.47;;;1.20;;
39190;SDS011;24916;51.676;6.614;2023-04-25T14:10:36;5.03;;;0.98;;
39190;SDS011;24916;51.676;6.614;2023-04-25T14:13:02;10.00;;;1.52;;
39190;SDS011;24916;51.676;6.614;2023-04-25T14:15:28;3.85;;;1.13;;
39190;SDS011;24916;51.676;6.614;2023-04-25T14:17:53;4.32;;;1.10;;
39190;SDS011;24916;51.676;6.614;2023-04-25T14:20:18;10.63;;;1.30;;
39190;SDS011;24916;51.676;6.614;2023-04-25T14:22:46;8.60;;;1.40;;
39190;SDS011;24916;51.676;6.614;2023-04-25T14:25:11;5.13;;;0.88;;
39190;SDS011;24916;51.676;6.614;2023-04-25T14:27:36;3.42;;;0.80;;
39190;SDS011;24916;51.676;6.614;2023-04-25T14:30:02;7.30;;;1.40;;
39190;SDS011;24916;51.676;6.614;2023-04-25T14:32:27;5.55;;;1.10;;
39190;SDS011;24916;51.676;6.614;2023-04-25T14:34:52;6.90;;;1.27;;
39190;SDS011;24916;51.676;6.614;2023-04-25T14:37:17;5.03;;;1.50;;
39190;SDS011;24916;51.676;6.614;2023-04-25T14:39:43;6.95;;;0.98;;
39190;SDS011;24916;51.676;6.614;2023-04-25T14:42:08;5.20;;;1.58;;
39190;SDS011;24916;51.676;6.614;2023-04-25T14:44:33;5.50;;;1.52;;
39190;SDS011;24916;51.676;6.614;2023-04-25T14:46:58;4.25;;;1.17;;
39190;SDS011;24916;51.676;6.614;2023-04-25T14:49:24;8.10;;;1.25;;
39190;SDS011;24916;51.676;6.614;2023-04-25T14:51:49;2.88;;;0.85;;
39190;SDS011;24916;51.676;6.614;2023-04-25T14:54:14;4.53;;;0.90;;